sensor_id;sensor_type;location;lat;lon;timestamp;P1;durP1;ratioP1;P2;durP2;ratioP2
47153;SDS011;32907;41.412;2.164;2023-09-19T00:02:19;3.05;;;1.20;;
47153;SDS011;32907;41.412;2.164;2023-09-19T00:04:49;1.83;;;0.80;;
47153;SDS011;32907;41.412;2.164;2023-09-19T00:07:17;2.15;;;0.90;;
47153;SDS011;32907;41.412;2.164;2023-09-19T00:09:46;2.17;;;1.20;;
47153;SDS011;32907;41.412;2.164;2023-09-19T00:12:14;1.63;;;0.70;;
47153;SDS011;32907;41.412;2.164;2023-09-19T00:14:43;1.73;;;1.00;;
47153;SDS011;32907;41.412;2.164;2023-09-19T00:17:12;1.80;;;1.00;;
47153;SDS011;32907;41.412;2.164;2023-09-19T00:19:40;1.83;;;0.90;;
47153;SDS011;32907;41.412;2.164;2023-09-19T00:22:10;1.73;;;0.80;;
47153;SDS011;32907;41.412;2.164;2023-09-19T00:24:40;1.75;;;0.70;;
47153;SDS011;32907;41.412;2.164;2023-09-19T00:27:09;2.30;;;0.88;;
47153;SDS011;32907;41.412;2.164;2023-09-19T00:29:38;2.90;;;1.00;;
47153;SDS011;32907;41.412;2.164;2023-09-19T00:32:07;1.58;;;0.60;;
47153;SDS011;32907;41.412;2.164;2023-09-19T00:34:36;1.20;;;0.70;;
47153;SDS011;32907;41.412;2.164;2023-09-19T00:37:05;1.70;;;0.80;;
47153;SDS011;32907;41.412;2.164;2023-09-19T00:39:33;2.42;;;0.70;;
47153;SDS011;32907;41.412;2.164;2023-09-19T00:42:01;1.15;;;0.70;;
47153;SDS011;32907;41.412;2.164;2023-09-19T00:44:32;1.75;;;0.73;;
47153;SDS011;32907;41.412;2.164;2023-09-19T00:47:02;3.38;;;0.70;;
47153;SDS011;32907;41.412;2.164;2023-09-19T00:49:31;2.55;;;0.80;;
47153;SDS011;32907;41.412;2.164;2023-09-19T00:52:01;1.67;;;0.80;;
47153;SDS011;32907;41.412;2.164;2023-09-19T00:54:29;1.75;;;0.90;;
47153;SDS011;32907;41.412;2.164;2023-09-19T00:56:58;1.98;;;0.90;;
47153;SDS011;32907;41.412;2.164;2023-09-19T00:59:26;3.50;;;0.88;;
47153;SDS011;32907;41.412;2.164;2023-09-19T01:01:57;1.67;;;0.80;;
47153;SDS011;32907;41.412;2.164;2023-09-19T01:04:30;1.92;;;0.90;;
47153;SDS011;32907;41.412;2.164;2023-09-19T01:06:59;2.45;;;1.00;;
47153;SDS011;32907;41.412;2.164;2023-09-19T01:09:28;2.10;;;0.98;;
47153;SDS011;32907;41.412;2.164;2023-09-19T01:11:58;2.72;;;0.70;;
47153;SDS011;32907;41.412;2.164;2023-09-19T01:14:34;3.00;;;1.02;;
47153;SDS011;32907;41.412;2.164;2023-09-19T01:17:29;1.02;;;0.80;;
47153;SDS011;32907;41.412;2.164;2023-09-19T01:20:08;3.15;;;1.10;;
47153;SDS011;32907;41.412;2.164;2023-09-19T01:23:02;2.60;;;1.15;;
47153;SDS011;32907;41.412;2.164;2023-09-19T01:25:49;2.00;;;1.00;;
47153;SDS011;32907;41.412;2.164;2023-09-19T01:28:54;3.30;;;1.40;;
47153;SDS011;32907;41.412;2.164;2023-09-19T01:31:31;2.15;;;1.20;;
47153;SDS011;32907;41.412;2.164;2023-09-19T01:34:03;2.30;;;1.08;;
47153;SDS011;32907;41.412;2.164;2023-09-19T01:36:35;2.38;;;1.08;;
47153;SDS011;32907;41.412;2.164;2023-09-19T01:39:05;2.28;;;1.10;;
47153;SDS011;32907;41.412;2.164;2023-09-19T01:44:44;2.05;;;0.93;;
47153;SDS011;32907;41.412;2.164;2023-09-19T01:47:32;2.90;;;1.48;;
47153;SDS011;32907;41.412;2.164;2023-09-19T01:52:52;2.53;;;1.23;;
47153;SDS011;32907;41.412;2.164;2023-09-19T01:58:07;3.00;;;1.38;;
47153;SDS011;32907;41.412;2.164;2023-09-19T02:00:43;3.58;;;1.38;;
47153;SDS011;32907;41.412;2.164;2023-09-19T02:03:14;3.78;;;1.20;;
47153;SDS011;32907;41.412;2.164;2023-09-19T02:05:50;4.10;;;1.20;;
47153;SDS011;32907;41.412;2.164;2023-09-19T02:08:20;5.15;;;1.20;;
47153;SDS011;32907;41.412;2.164;2023-09-19T02:10:53;3.20;;;1.20;;
47153;SDS011;32907;41.412;2.164;2023-09-19T02:13:21;2.53;;;0.90;;
47153;SDS011;32907;41.412;2.164;2023-09-19T02:15:56;1.83;;;1.10;;
47153;SDS011;32907;41.412;2.164;2023-09-19T02:18:24;2.42;;;1.13;;
47153;SDS011;32907;41.412;2.164;2023-09-19T02:20:54;2.85;;;1.55;;
47153;SDS011;32907;41.412;2.164;2023-09-19T02:23:24;4.40;;;1.30;;
47153;SDS011;32907;41.412;2.164;2023-09-19T02:25:53;4.22;;;1.10;;
47153;SDS011;32907;41.412;2.164;2023-09-19T02:28:22;1.70;;;0.85;;
47153;SDS011;32907;41.412;2.164;2023-09-19T02:30:51;3.28;;;1.30;;
47153;SDS011;32907;41.412;2.164;2023-09-19T02:33:19;3.97;;;1.52;;
47153;SDS011;32907;41.412;2.164;2023-09-19T02:35:54;2.40;;;1.10;;
47153;SDS011;32907;41.412;2.164;2023-09-19T02:38:25;2.47;;;1.20;;
47153;SDS011;32907;41.412;2.164;2023-09-19T02:40:54;3.03;;;1.23;;
47153;SDS011;32907;41.412;2.164;2023-09-19T02:43:23;4.15;;;1.48;;
47153;SDS011;32907;41.412;2.164;2023-09-19T02:45:52;3.42;;;1.25;;
47153;SDS011;32907;41.412;2.164;2023-09-19T02:48:25;2.95;;;1.50;;
47153;SDS011;32907;41.412;2.164;2023-09-19T02:50:53;3.90;;;1.38;;
47153;SDS011;32907;41.412;2.164;2023-09-19T02:53:21;2.83;;;1.45;;
47153;SDS011;32907;41.412;2.164;2023-09-19T02:55:50;4.97;;;1.33;;
47153;SDS011;32907;41.412;2.164;2023-09-19T02:58:22;2.42;;;1.20;;
47153;SDS011;32907;41.412;2.164;2023-09-19T03:00:51;2.42;;;1.35;;
47153;SDS011;32907;41.412;2.164;2023-09-19T03:03:20;3.03;;;1.20;;
47153;SDS011;32907;41.412;2.164;2023-09-19T03:05:48;2.30;;;1.30;;
47153;SDS011;32907;41.412;2.164;2023-09-19T03:08:21;2.97;;;1.30;;
47153;SDS011;32907;41.412;2.164;2023-09-19T03:10:51;2.97;;;1.20;;
47153;SDS011;32907;41.412;2.164;2023-09-19T03:13:20;4.60;;;1.40;;
47153;SDS011;32907;41.412;2.164;2023-09-19T03:15:48;2.95;;;1.40;;
47153;SDS011;32907;41.412;2.164;2023-09-19T03:18:24;3.10;;;1.25;;
47153;SDS011;32907;41.412;2.164;2023-09-19T03:20:57;3.40;;;1.40;;
47153;SDS011;32907;41.412;2.164;2023-09-19T03:23:30;4.72;;;1.30;;
47153;SDS011;32907;41.412;2.164;2023-09-19T03:25:58;2.80;;;1.20;;
47153;SDS011;32907;41.412;2.164;2023-09-19T03:28:26;5.18;;;1.30;;
47153;SDS011;32907;41.412;2.164;2023-09-19T03:30:59;3.85;;;1.30;;
47153;SDS011;32907;41.412;2.164;2023-09-19T03:33:29;2.63;;;1.25;;
47153;SDS011;32907;41.412;2.164;2023-09-19T03:36:00;4.90;;;1.48;;
47153;SDS011;32907;41.412;2.164;2023-09-19T03:38:33;2.90;;;1.30;;
47153;SDS011;32907;41.412;2.164;2023-09-19T03:41:02;3.30;;;1.10;;
47153;SDS011;32907;41.412;2.164;2023-09-19T03:43:33;4.65;;;1.33;;
47153;SDS011;32907;41.412;2.164;2023-09-19T03:46:03;2.75;;;1.10;;
47153;SDS011;32907;41.412;2.164;2023-09-19T03:48:38;3.40;;;1.40;;
47153;SDS011;32907;41.412;2.164;2023-09-19T03:51:06;3.95;;;1.30;;
47153;SDS011;32907;41.412;2.164;2023-09-19T03:53:34;2.35;;;0.82;;
47153;SDS011;32907;41.412;2.164;2023-09-19T03:56:03;3.65;;;1.30;;
47153;SDS011;32907;41.412;2.164;2023-09-19T03:58:33;3.95;;;1.10;;
47153;SDS011;32907;41.412;2.164;2023-09-19T04:01:06;2.72;;;1.13;;
47153;SDS011;32907;41.412;2.164;2023-09-19T04:03:34;3.60;;;1.17;;
47153;SDS011;32907;41.412;2.164;2023-09-19T04:06:14;6.38;;;1.08;;
47153;SDS011;32907;41.412;2.164;2023-09-19T04:08:43;3.97;;;1.23;;
47153;SDS011;32907;41.412;2.164;2023-09-19T04:11:12;3.47;;;1.05;;
47153;SDS011;32907;41.412;2.164;2023-09-19T04:13:40;3.75;;;1.10;;
47153;SDS011;32907;41.412;2.164;2023-09-19T04:16:10;4.40;;;0.88;;
47153;SDS011;32907;41.412;2.164;2023-09-19T04:18:38;4.13;;;1.00;;
47153;SDS011;32907;41.412;2.164;2023-09-19T04:21:08;4.13;;;1.13;;
47153;SDS011;32907;41.412;2.164;2023-09-19T04:23:36;9.68;;;3.38;;
47153;SDS011;32907;41.412;2.164;2023-09-19T04:26:05;31.48;;;17.02;;
47153;SDS011;32907;41.412;2.164;2023-09-19T04:28:34;30.05;;;18.35;;
47153;SDS011;32907;41.412;2.164;2023-09-19T04:31:06;15.00;;;10.77;;
47153;SDS011;32907;41.412;2.164;2023-09-19T04:33:36;11.05;;;7.00;;
47153;SDS011;32907;41.412;2.164;2023-09-19T04:36:05;8.85;;;3.92;;
47153;SDS011;32907;41.412;2.164;2023-09-19T04:38:55;4.85;;;2.50;;
47153;SDS011;32907;41.412;2.164;2023-09-19T04:41:23;4.55;;;2.10;;
47153;SDS011;32907;41.412;2.164;2023-09-19T04:43:52;5.57;;;1.88;;
47153;SDS011;32907;41.412;2.164;2023-09-19T04:46:20;5.32;;;2.40;;
47153;SDS011;32907;41.412;2.164;2023-09-19T04:48:49;4.93;;;1.92;;
47153;SDS011;32907;41.412;2.164;2023-09-19T04:51:18;4.60;;;2.00;;
47153;SDS011;32907;41.412;2.164;2023-09-19T04:53:48;4.20;;;1.45;;
47153;SDS011;32907;41.412;2.164;2023-09-19T04:56:17;3.83;;;1.70;;
47153;SDS011;32907;41.412;2.164;2023-09-19T05:02:07;5.35;;;3.08;;
47153;SDS011;32907;41.412;2.164;2023-09-19T05:05:33;5.93;;;2.38;;
47153;SDS011;32907;41.412;2.164;2023-09-19T05:08:44;6.85;;;2.25;;
47153;SDS011;32907;41.412;2.164;2023-09-19T05:12:04;4.22;;;1.50;;
47153;SDS011;32907;41.412;2.164;2023-09-19T05:15:22;4.00;;;1.52;;
47153;SDS011;32907;41.412;2.164;2023-09-19T05:19:02;4.80;;;1.48;;
47153;SDS011;32907;41.412;2.164;2023-09-19T05:22:29;5.85;;;1.50;;
47153;SDS011;32907;41.412;2.164;2023-09-19T05:25:57;3.70;;;1.30;;
47153;SDS011;32907;41.412;2.164;2023-09-19T05:29:29;36.55;;;10.05;;
47153;SDS011;32907;41.412;2.164;2023-09-19T05:33:29;28.67;;;9.80;;
47153;SDS011;32907;41.412;2.164;2023-09-19T05:37:04;17.83;;;6.03;;
47153;SDS011;32907;41.412;2.164;2023-09-19T05:40:25;12.07;;;4.05;;
47153;SDS011;32907;41.412;2.164;2023-09-19T05:44:00;7.47;;;3.08;;
47153;SDS011;32907;41.412;2.164;2023-09-19T05:47:26;10.75;;;4.93;;
47153;SDS011;32907;41.412;2.164;2023-09-19T05:51:34;9.52;;;4.13;;
47153;SDS011;32907;41.412;2.164;2023-09-19T05:55:05;7.40;;;3.50;;
47153;SDS011;32907;41.412;2.164;2023-09-19T05:58:35;7.25;;;2.10;;
47153;SDS011;32907;41.412;2.164;2023-09-19T06:03:03;4.93;;;1.40;;
47153;SDS011;32907;41.412;2.164;2023-09-19T06:07:06;3.80;;;0.90;;
47153;SDS011;32907;41.412;2.164;2023-09-19T06:10:20;4.03;;;1.00;;
47153;SDS011;32907;41.412;2.164;2023-09-19T06:14:29;7.13;;;1.30;;
47153;SDS011;32907;41.412;2.164;2023-09-19T06:18:11;8.48;;;1.63;;
47153;SDS011;32907;41.412;2.164;2023-09-19T06:21:53;5.45;;;1.40;;
47153;SDS011;32907;41.412;2.164;2023-09-19T06:25:15;6.03;;;1.88;;
47153;SDS011;32907;41.412;2.164;2023-09-19T06:28:10;7.00;;;2.13;;
47153;SDS011;32907;41.412;2.164;2023-09-19T06:31:33;10.90;;;1.95;;
47153;SDS011;32907;41.412;2.164;2023-09-19T06:34:37;7.22;;;1.80;;
47153;SDS011;32907;41.412;2.164;2023-09-19T06:38:34;7.68;;;1.92;;
47153;SDS011;32907;41.412;2.164;2023-09-19T06:42:02;6.60;;;2.03;;
47153;SDS011;32907;41.412;2.164;2023-09-19T06:44:59;8.23;;;1.70;;
47153;SDS011;32907;41.412;2.164;2023-09-19T06:48:24;5.90;;;2.00;;
47153;SDS011;32907;41.412;2.164;2023-09-19T06:51:40;7.68;;;2.20;;
47153;SDS011;32907;41.412;2.164;2023-09-19T06:55:17;5.88;;;1.80;;
47153;SDS011;32907;41.412;2.164;2023-09-19T06:58:25;5.60;;;1.80;;
47153;SDS011;32907;41.412;2.164;2023-09-19T07:01:33;5.47;;;1.40;;
47153;SDS011;32907;41.412;2.164;2023-09-19T07:04:58;5.53;;;1.70;;
47153;SDS011;32907;41.412;2.164;2023-09-19T07:08:25;4.63;;;1.63;;
47153;SDS011;32907;41.412;2.164;2023-09-19T07:11:12;8.17;;;1.90;;
47153;SDS011;32907;41.412;2.164;2023-09-19T07:14:25;4.68;;;1.35;;
47153;SDS011;32907;41.412;2.164;2023-09-19T07:17:52;8.48;;;1.98;;
47153;SDS011;32907;41.412;2.164;2023-09-19T07:21:06;7.25;;;1.90;;
47153;SDS011;32907;41.412;2.164;2023-09-19T07:24:29;10.85;;;1.90;;
47153;SDS011;32907;41.412;2.164;2023-09-19T07:28:13;8.13;;;2.00;;
47153;SDS011;32907;41.412;2.164;2023-09-19T07:31:25;6.80;;;1.83;;
47153;SDS011;32907;41.412;2.164;2023-09-19T07:35:13;6.57;;;1.90;;
47153;SDS011;32907;41.412;2.164;2023-09-19T07:38:28;5.28;;;1.77;;
47153;SDS011;32907;41.412;2.164;2023-09-19T07:41:54;3.88;;;1.55;;
47153;SDS011;32907;41.412;2.164;2023-09-19T07:45:01;6.15;;;1.60;;
47153;SDS011;32907;41.412;2.164;2023-09-19T07:48:21;6.05;;;1.85;;
47153;SDS011;32907;41.412;2.164;2023-09-19T07:51:45;4.93;;;1.58;;
47153;SDS011;32907;41.412;2.164;2023-09-19T07:55:50;5.68;;;1.70;;
47153;SDS011;32907;41.412;2.164;2023-09-19T07:58:23;9.75;;;1.98;;
47153;SDS011;32907;41.412;2.164;2023-09-19T08:00:51;7.60;;;2.20;;
47153;SDS011;32907;41.412;2.164;2023-09-19T08:03:24;5.60;;;1.95;;
47153;SDS011;32907;41.412;2.164;2023-09-19T08:05:52;5.63;;;1.90;;
47153;SDS011;32907;41.412;2.164;2023-09-19T08:08:21;5.70;;;1.70;;
47153;SDS011;32907;41.412;2.164;2023-09-19T08:10:53;5.57;;;2.17;;
47153;SDS011;32907;41.412;2.164;2023-09-19T08:13:26;8.25;;;2.95;;
47153;SDS011;32907;41.412;2.164;2023-09-19T08:15:55;5.85;;;2.40;;
47153;SDS011;32907;41.412;2.164;2023-09-19T08:18:24;4.70;;;1.80;;
47153;SDS011;32907;41.412;2.164;2023-09-19T08:20:54;5.20;;;2.20;;
47153;SDS011;32907;41.412;2.164;2023-09-19T08:23:22;7.40;;;2.25;;
47153;SDS011;32907;41.412;2.164;2023-09-19T08:25:55;9.40;;;2.05;;
47153;SDS011;32907;41.412;2.164;2023-09-19T08:28:28;7.55;;;2.85;;
47153;SDS011;32907;41.412;2.164;2023-09-19T08:31:01;18.45;;;3.58;;
47153;SDS011;32907;41.412;2.164;2023-09-19T08:37:06;12.00;;;2.53;;
47153;SDS011;32907;41.412;2.164;2023-09-19T08:40:27;4.57;;;1.70;;
47153;SDS011;32907;41.412;2.164;2023-09-19T08:44:03;7.47;;;2.22;;
47153;SDS011;32907;41.412;2.164;2023-09-19T08:47:52;6.80;;;2.20;;
47153;SDS011;32907;41.412;2.164;2023-09-19T08:51:27;7.35;;;2.53;;
47153;SDS011;32907;41.412;2.164;2023-09-19T08:55:02;6.18;;;1.70;;
47153;SDS011;32907;41.412;2.164;2023-09-19T08:58:13;6.10;;;1.92;;
47153;SDS011;32907;41.412;2.164;2023-09-19T09:01:51;7.40;;;2.25;;
47153;SDS011;32907;41.412;2.164;2023-09-19T09:05:13;7.20;;;1.90;;
47153;SDS011;32907;41.412;2.164;2023-09-19T09:07:44;7.10;;;1.88;;
47153;SDS011;32907;41.412;2.164;2023-09-19T09:10:15;6.57;;;1.80;;
47153;SDS011;32907;41.412;2.164;2023-09-19T09:12:44;7.35;;;1.73;;
47153;SDS011;32907;41.412;2.164;2023-09-19T09:15:13;5.70;;;2.00;;
47153;SDS011;32907;41.412;2.164;2023-09-19T09:17:46;9.07;;;2.28;;
47153;SDS011;32907;41.412;2.164;2023-09-19T09:20:17;8.15;;;2.53;;
47153;SDS011;32907;41.412;2.164;2023-09-19T09:22:53;6.20;;;2.00;;
47153;SDS011;32907;41.412;2.164;2023-09-19T09:30:40;3.95;;;1.85;;
47153;SDS011;32907;41.412;2.164;2023-09-19T09:33:09;4.40;;;1.80;;
47153;SDS011;32907;41.412;2.164;2023-09-19T09:35:52;5.15;;;1.80;;
47153;SDS011;32907;41.412;2.164;2023-09-19T09:38:25;7.95;;;2.63;;
47153;SDS011;32907;41.412;2.164;2023-09-19T09:41:05;5.57;;;1.95;;
47153;SDS011;32907;41.412;2.164;2023-09-19T09:43:35;8.98;;;1.70;;
47153;SDS011;32907;41.412;2.164;2023-09-19T09:46:16;6.00;;;1.75;;
47153;SDS011;32907;41.412;2.164;2023-09-19T09:49:24;6.20;;;1.95;;
47153;SDS011;32907;41.412;2.164;2023-09-19T09:53:03;5.97;;;1.90;;
47153;SDS011;32907;41.412;2.164;2023-09-19T09:56:35;7.93;;;1.83;;
47153;SDS011;32907;41.412;2.164;2023-09-19T10:00:27;5.00;;;1.77;;
47153;SDS011;32907;41.412;2.164;2023-09-19T10:04:28;4.35;;;1.67;;
47153;SDS011;32907;41.412;2.164;2023-09-19T10:08:12;4.78;;;1.50;;
47153;SDS011;32907;41.412;2.164;2023-09-19T10:11:30;4.57;;;1.88;;
47153;SDS011;32907;41.412;2.164;2023-09-19T10:15:17;5.40;;;1.65;;
47153;SDS011;32907;41.412;2.164;2023-09-19T10:18:29;5.40;;;1.85;;
47153;SDS011;32907;41.412;2.164;2023-09-19T10:21:04;5.35;;;2.15;;
47153;SDS011;32907;41.412;2.164;2023-09-19T10:23:34;4.18;;;1.90;;
47153;SDS011;32907;41.412;2.164;2023-09-19T10:26:05;5.47;;;1.70;;
47153;SDS011;32907;41.412;2.164;2023-09-19T10:28:35;5.22;;;1.73;;
47153;SDS011;32907;41.412;2.164;2023-09-19T10:31:07;5.53;;;2.15;;
47153;SDS011;32907;41.412;2.164;2023-09-19T10:33:37;6.20;;;2.03;;
47153;SDS011;32907;41.412;2.164;2023-09-19T10:36:09;5.78;;;2.13;;
47153;SDS011;32907;41.412;2.164;2023-09-19T10:38:39;6.40;;;2.45;;
47153;SDS011;32907;41.412;2.164;2023-09-19T10:41:14;9.07;;;2.45;;
47153;SDS011;32907;41.412;2.164;2023-09-19T10:43:51;5.95;;;2.40;;
47153;SDS011;32907;41.412;2.164;2023-09-19T10:46:22;6.22;;;2.70;;
47153;SDS011;32907;41.412;2.164;2023-09-19T10:48:52;6.47;;;2.95;;
47153;SDS011;32907;41.412;2.164;2023-09-19T10:51:23;8.73;;;2.80;;
47153;SDS011;32907;41.412;2.164;2023-09-19T10:54:02;6.60;;;2.97;;
47153;SDS011;32907;41.412;2.164;2023-09-19T11:00:52;7.65;;;2.72;;
47153;SDS011;32907;41.412;2.164;2023-09-19T11:07:58;4.03;;;2.08;;
47153;SDS011;32907;41.412;2.164;2023-09-19T11:11:42;5.07;;;2.05;;
47153;SDS011;32907;41.412;2.164;2023-09-19T11:14:52;5.90;;;1.98;;
47153;SDS011;32907;41.412;2.164;2023-09-19T11:21:59;3.65;;;1.90;;
47153;SDS011;32907;41.412;2.164;2023-09-19T11:25:40;5.38;;;1.85;;
47153;SDS011;32907;41.412;2.164;2023-09-19T11:28:55;3.83;;;1.50;;
47153;SDS011;32907;41.412;2.164;2023-09-19T11:37:02;6.03;;;1.77;;
47153;SDS011;32907;41.412;2.164;2023-09-19T11:40:19;4.13;;;1.58;;
47153;SDS011;32907;41.412;2.164;2023-09-19T11:43:43;4.30;;;1.90;;
47153;SDS011;32907;41.412;2.164;2023-09-19T11:46:28;5.28;;;1.77;;
47153;SDS011;32907;41.412;2.164;2023-09-19T11:50:09;4.43;;;1.50;;
47153;SDS011;32907;41.412;2.164;2023-09-19T11:53:07;7.35;;;2.50;;
47153;SDS011;32907;41.412;2.164;2023-09-19T11:56:29;8.75;;;3.30;;
47153;SDS011;32907;41.412;2.164;2023-09-19T11:59:47;8.23;;;3.42;;
47153;SDS011;32907;41.412;2.164;2023-09-19T12:03:21;7.75;;;2.50;;
47153;SDS011;32907;41.412;2.164;2023-09-19T12:06:32;7.75;;;2.28;;
47153;SDS011;32907;41.412;2.164;2023-09-19T12:10:10;3.15;;;1.70;;
47153;SDS011;32907;41.412;2.164;2023-09-19T12:14:34;3.85;;;1.60;;
47153;SDS011;32907;41.412;2.164;2023-09-19T12:17:47;5.43;;;1.80;;
47153;SDS011;32907;41.412;2.164;2023-09-19T12:21:00;4.65;;;1.55;;
47153;SDS011;32907;41.412;2.164;2023-09-19T12:24:20;6.05;;;1.73;;
47153;SDS011;32907;41.412;2.164;2023-09-19T12:27:24;5.88;;;2.75;;
47153;SDS011;32907;41.412;2.164;2023-09-19T12:30:57;7.63;;;2.63;;
47153;SDS011;32907;41.412;2.164;2023-09-19T12:34:36;7.07;;;3.13;;
47153;SDS011;32907;41.412;2.164;2023-09-19T12:37:56;5.95;;;2.00;;
47153;SDS011;32907;41.412;2.164;2023-09-19T12:41:15;8.38;;;2.22;;
47153;SDS011;32907;41.412;2.164;2023-09-19T12:44:45;8.25;;;4.00;;
47153;SDS011;32907;41.412;2.164;2023-09-19T12:48:26;5.78;;;2.60;;
47153;SDS011;32907;41.412;2.164;2023-09-19T12:51:55;4.30;;;1.77;;
47153;SDS011;32907;41.412;2.164;2023-09-19T12:55:21;4.03;;;1.55;;
47153;SDS011;32907;41.412;2.164;2023-09-19T12:58:52;7.40;;;2.70;;
47153;SDS011;32907;41.412;2.164;2023-09-19T13:02:04;4.68;;;1.75;;
47153;SDS011;32907;41.412;2.164;2023-09-19T13:09:09;3.47;;;1.52;;
47153;SDS011;32907;41.412;2.164;2023-09-19T13:12:38;4.10;;;1.98;;
47153;SDS011;32907;41.412;2.164;2023-09-19T13:16:05;3.20;;;1.58;;
47153;SDS011;32907;41.412;2.164;2023-09-19T13:23:25;7.00;;;2.00;;
47153;SDS011;32907;41.412;2.164;2023-09-19T13:26:39;8.05;;;1.77;;
47153;SDS011;32907;41.412;2.164;2023-09-19T13:29:59;6.00;;;1.85;;
47153;SDS011;32907;41.412;2.164;2023-09-19T13:33:11;4.10;;;1.50;;
47153;SDS011;32907;41.412;2.164;2023-09-19T13:35:42;5.45;;;1.55;;
47153;SDS011;32907;41.412;2.164;2023-09-19T13:38:10;6.85;;;1.40;;
47153;SDS011;32907;41.412;2.164;2023-09-19T13:40:40;3.70;;;1.50;;
47153;SDS011;32907;41.412;2.164;2023-09-19T13:43:11;3.42;;;1.55;;
47153;SDS011;32907;41.412;2.164;2023-09-19T13:45:40;4.68;;;1.75;;
47153;SDS011;32907;41.412;2.164;2023-09-19T13:48:12;3.20;;;1.50;;
47153;SDS011;32907;41.412;2.164;2023-09-19T13:50:41;5.47;;;1.42;;
47153;SDS011;32907;41.412;2.164;2023-09-19T13:53:10;3.65;;;1.70;;
47153;SDS011;32907;41.412;2.164;2023-09-19T13:55:39;3.22;;;1.50;;
47153;SDS011;32907;41.412;2.164;2023-09-19T13:58:08;7.15;;;1.95;;
47153;SDS011;32907;41.412;2.164;2023-09-19T14:00:38;5.43;;;1.77;;
47153;SDS011;32907;41.412;2.164;2023-09-19T14:03:07;7.15;;;1.50;;
47153;SDS011;32907;41.412;2.164;2023-09-19T14:05:36;4.07;;;1.58;;
47153;SDS011;32907;41.412;2.164;2023-09-19T14:08:05;4.68;;;1.52;;
47153;SDS011;32907;41.412;2.164;2023-09-19T14:10:34;6.72;;;1.48;;
47153;SDS011;32907;41.412;2.164;2023-09-19T14:13:03;6.47;;;1.50;;
47153;SDS011;32907;41.412;2.164;2023-09-19T14:15:32;5.53;;;1.42;;
47153;SDS011;32907;41.412;2.164;2023-09-19T14:18:05;5.05;;;1.60;;
47153;SDS011;32907;41.412;2.164;2023-09-19T14:20:37;8.18;;;1.70;;
47153;SDS011;32907;41.412;2.164;2023-09-19T14:23:07;5.65;;;1.80;;
47153;SDS011;32907;41.412;2.164;2023-09-19T14:25:36;5.45;;;1.90;;
47153;SDS011;32907;41.412;2.164;2023-09-19T14:28:06;6.03;;;1.85;;
47153;SDS011;32907;41.412;2.164;2023-09-19T14:30:36;9.35;;;4.82;;
47153;SDS011;32907;41.412;2.164;2023-09-19T14:33:05;8.85;;;3.85;;
47153;SDS011;32907;41.412;2.164;2023-09-19T14:35:36;6.60;;;3.53;;
47153;SDS011;32907;41.412;2.164;2023-09-19T14:38:06;6.00;;;2.45;;
47153;SDS011;32907;41.412;2.164;2023-09-19T14:40:35;6.10;;;2.13;;
47153;SDS011;32907;41.412;2.164;2023-09-19T14:43:05;8.60;;;3.03;;
47153;SDS011;32907;41.412;2.164;2023-09-19T14:45:36;6.60;;;2.30;;
47153;SDS011;32907;41.412;2.164;2023-09-19T14:48:06;7.25;;;2.78;;
47153;SDS011;32907;41.412;2.164;2023-09-19T14:50:39;6.30;;;2.50;;
47153;SDS011;32907;41.412;2.164;2023-09-19T14:53:07;6.03;;;2.60;;
47153;SDS011;32907;41.412;2.164;2023-09-19T14:55:38;8.48;;;2.97;;
47153;SDS011;32907;41.412;2.164;2023-09-19T14:58:09;6.47;;;2.83;;
47153;SDS011;32907;41.412;2.164;2023-09-19T15:00:37;3.92;;;1.90;;
47153;SDS011;32907;41.412;2.164;2023-09-19T15:03:06;7.90;;;2.67;;
47153;SDS011;32907;41.412;2.164;2023-09-19T15:05:35;7.05;;;2.55;;
47153;SDS011;32907;41.412;2.164;2023-09-19T15:08:04;5.45;;;2.20;;
47153;SDS011;32907;41.412;2.164;2023-09-19T15:10:33;5.80;;;2.53;;
47153;SDS011;32907;41.412;2.164;2023-09-19T15:13:02;5.00;;;1.63;;
47153;SDS011;32907;41.412;2.164;2023-09-19T15:15:31;5.07;;;1.75;;
47153;SDS011;32907;41.412;2.164;2023-09-19T15:18:00;6.13;;;1.92;;
47153;SDS011;32907;41.412;2.164;2023-09-19T15:20:29;6.20;;;1.40;;
47153;SDS011;32907;41.412;2.164;2023-09-19T15:22:58;5.95;;;1.40;;
47153;SDS011;32907;41.412;2.164;2023-09-19T15:25:28;5.35;;;1.58;;
47153;SDS011;32907;41.412;2.164;2023-09-19T15:27:56;3.83;;;1.38;;
47153;SDS011;32907;41.412;2.164;2023-09-19T15:30:26;4.97;;;1.92;;
47153;SDS011;32907;41.412;2.164;2023-09-19T15:32:54;4.85;;;1.70;;
47153;SDS011;32907;41.412;2.164;2023-09-19T15:35:22;10.43;;;2.60;;
47153;SDS011;32907;41.412;2.164;2023-09-19T15:37:52;7.57;;;1.80;;
47153;SDS011;32907;41.412;2.164;2023-09-19T15:40:23;5.03;;;1.77;;
47153;SDS011;32907;41.412;2.164;2023-09-19T15:42:51;4.85;;;1.45;;
47153;SDS011;32907;41.412;2.164;2023-09-19T15:45:20;5.40;;;1.80;;
47153;SDS011;32907;41.412;2.164;2023-09-19T15:47:48;3.83;;;1.77;;
47153;SDS011;32907;41.412;2.164;2023-09-19T15:50:16;5.25;;;1.40;;
47153;SDS011;32907;41.412;2.164;2023-09-19T15:52:45;3.55;;;1.33;;
47153;SDS011;32907;41.412;2.164;2023-09-19T15:55:14;6.43;;;1.70;;
47153;SDS011;32907;41.412;2.164;2023-09-19T15:57:43;7.00;;;1.98;;
47153;SDS011;32907;41.412;2.164;2023-09-19T16:00:13;6.13;;;1.50;;
47153;SDS011;32907;41.412;2.164;2023-09-19T16:02:45;5.47;;;1.77;;
47153;SDS011;32907;41.412;2.164;2023-09-19T16:05:15;8.55;;;1.85;;
47153;SDS011;32907;41.412;2.164;2023-09-19T16:10:38;3.45;;;1.45;;
47153;SDS011;32907;41.412;2.164;2023-09-19T16:13:06;3.97;;;1.45;;
47153;SDS011;32907;41.412;2.164;2023-09-19T16:15:39;4.78;;;1.70;;
47153;SDS011;32907;41.412;2.164;2023-09-19T16:18:10;6.45;;;1.40;;
47153;SDS011;32907;41.412;2.164;2023-09-19T16:20:39;5.32;;;1.90;;
47153;SDS011;32907;41.412;2.164;2023-09-19T16:23:08;5.25;;;1.98;;
47153;SDS011;32907;41.412;2.164;2023-09-19T16:25:36;4.28;;;1.55;;
47153;SDS011;32907;41.412;2.164;2023-09-19T16:28:05;4.57;;;1.33;;
47153;SDS011;32907;41.412;2.164;2023-09-19T16:30:34;5.03;;;1.70;;
47153;SDS011;32907;41.412;2.164;2023-09-19T16:33:02;4.47;;;1.50;;
47153;SDS011;32907;41.412;2.164;2023-09-19T16:35:30;3.70;;;1.30;;
47153;SDS011;32907;41.412;2.164;2023-09-19T16:37:58;7.03;;;1.65;;
47153;SDS011;32907;41.412;2.164;2023-09-19T16:40:27;6.45;;;1.73;;
47153;SDS011;32907;41.412;2.164;2023-09-19T16:42:55;4.97;;;1.45;;
47153;SDS011;32907;41.412;2.164;2023-09-19T16:45:25;5.45;;;1.55;;
47153;SDS011;32907;41.412;2.164;2023-09-19T16:47:53;7.13;;;1.85;;
47153;SDS011;32907;41.412;2.164;2023-09-19T16:50:23;4.13;;;1.80;;
47153;SDS011;32907;41.412;2.164;2023-09-19T16:52:51;7.32;;;2.38;;
47153;SDS011;32907;41.412;2.164;2023-09-19T16:55:19;12.15;;;4.28;;
47153;SDS011;32907;41.412;2.164;2023-09-19T16:57:49;12.52;;;4.20;;
47153;SDS011;32907;41.412;2.164;2023-09-19T17:00:18;8.25;;;4.45;;
47153;SDS011;32907;41.412;2.164;2023-09-19T17:02:47;8.55;;;4.00;;
47153;SDS011;32907;41.412;2.164;2023-09-19T17:05:20;9.95;;;3.53;;
47153;SDS011;32907;41.412;2.164;2023-09-19T17:07:50;7.25;;;2.70;;
47153;SDS011;32907;41.412;2.164;2023-09-19T17:10:20;5.88;;;2.90;;
47153;SDS011;32907;41.412;2.164;2023-09-19T17:12:49;6.82;;;2.45;;
47153;SDS011;32907;41.412;2.164;2023-09-19T17:15:18;6.25;;;2.78;;
47153;SDS011;32907;41.412;2.164;2023-09-19T17:17:48;6.50;;;2.63;;
47153;SDS011;32907;41.412;2.164;2023-09-19T17:20:16;7.38;;;2.28;;
47153;SDS011;32907;41.412;2.164;2023-09-19T17:22:45;5.72;;;1.90;;
47153;SDS011;32907;41.412;2.164;2023-09-19T17:25:14;5.45;;;1.90;;
47153;SDS011;32907;41.412;2.164;2023-09-19T17:27:42;4.80;;;1.75;;
47153;SDS011;32907;41.412;2.164;2023-09-19T17:30:13;6.65;;;1.58;;
47153;SDS011;32907;41.412;2.164;2023-09-19T17:32:45;10.73;;;1.80;;
47153;SDS011;32907;41.412;2.164;2023-09-19T17:35:14;3.65;;;1.38;;
47153;SDS011;32907;41.412;2.164;2023-09-19T17:37:45;5.95;;;1.60;;